createdAt,value
2023-03-24T00:00:39.376Z,41.99
2023-03-24T00:03:08.840Z,41.76
2023-03-24T00:05:37.308Z,41.84
2023-03-24T00:08:10.520Z,41.97
2023-03-24T00:10:40.244Z,42.06
2023-03-24T00:13:08.360Z,42.14
2023-03-24T00:15:36.600Z,42.23
2023-03-24T00:18:10.842Z,42.32
2023-03-24T00:20:41.343Z,42.51
2023-03-24T00:23:09.453Z,42.69
2023-03-24T00:25:40.210Z,42.91
2023-03-24T00:28:11.397Z,43.03
2023-03-24T00:30:41.626Z,43.14
2023-03-24T00:33:10.478Z,43.20
2023-03-24T00:35:40.804Z,43.33
2023-03-24T00:38:10.558Z,43.39
2023-03-24T00:40:58.977Z,43.51
2023-03-24T00:43:28.796Z,43.51
2023-03-24T00:46:02.157Z,43.54
2023-03-24T00:48:32.315Z,43.62
2023-03-24T00:51:03.360Z,43.62
2023-03-24T00:53:31.641Z,43.77
2023-03-24T00:56:00.655Z,43.92
2023-03-24T00:58:29.998Z,44.01
2023-03-24T01:01:01.137Z,44.08
2023-03-24T01:03:30.138Z,44.10
2023-03-24T01:06:03.191Z,44.07
2023-03-24T01:08:32.787Z,44.14
2023-03-24T01:11:01.580Z,44.23
2023-03-24T01:13:35.229Z,44.32
2023-03-24T01:16:03.658Z,44.40
2023-03-24T01:18:32.040Z,44.43
2023-03-24T01:21:01.377Z,44.41
2023-03-24T01:23:30.911Z,44.58
2023-03-24T01:25:59.160Z,44.61
2023-03-24T01:28:27.690Z,44.74
2023-03-24T01:30:56.056Z,44.80
2023-03-24T01:33:24.774Z,44.90
2023-03-24T01:35:53.202Z,44.96
2023-03-24T01:38:22.665Z,44.99
2023-03-24T01:40:52.708Z,45.09
2023-03-24T01:43:24.398Z,45.25
2023-03-24T01:46:18.583Z,45.38
2023-03-24T01:49:01.915Z,45.27
2023-03-24T01:51:41.005Z,45.28
2023-03-24T01:54:18.495Z,45.39
2023-03-24T01:57:23.101Z,45.46
2023-03-24T01:59:53.996Z,45.54
2023-03-24T02:02:44.649Z,45.55
2023-03-24T02:05:13.701Z,45.64
2023-03-24T02:07:50.721Z,45.62
2023-03-24T02:10:21.242Z,45.71
2023-03-24T02:12:49.412Z,45.80
2023-03-24T02:15:19.953Z,45.79
2023-03-24T02:17:57.402Z,45.87
2023-03-24T02:20:50.931Z,45.88
2023-03-24T02:23:40.701Z,45.88
2023-03-24T02:27:06.454Z,45.92
2023-03-24T02:30:33.215Z,45.88
2023-03-24T02:33:19.829Z,45.95
2023-03-24T02:36:05.049Z,45.88
2023-03-24T02:39:10.961Z,45.80
2023-03-24T02:42:02.222Z,45.82
2023-03-24T02:44:40.518Z,45.86
2023-03-24T02:47:35.097Z,45.91
2023-03-24T02:50:09.244Z,45.87
2023-03-24T02:52:43.825Z,45.82
2023-03-24T02:55:18.088Z,45.82
2023-03-24T02:57:51.721Z,45.79
2023-03-24T03:00:52.664Z,45.77
2023-03-24T03:03:53.490Z,45.93
2023-03-24T03:06:27.927Z,45.97
2023-03-24T03:08:56.328Z,46.01
2023-03-24T03:11:24.865Z,46.06
2023-03-24T03:14:32.306Z,46.07
2023-03-24T03:17:34.938Z,46.16
2023-03-24T03:20:13.601Z,46.27
2023-03-24T03:22:47.119Z,46.38
2023-03-24T03:25:17.015Z,46.45
2023-03-24T03:27:47.016Z,46.40
2023-03-24T03:30:21.120Z,46.54
2023-03-24T03:32:56.630Z,46.65
2023-03-24T03:35:35.436Z,46.73
2023-03-24T03:38:08.780Z,46.66
2023-03-24T03:40:55.822Z,46.72
2023-03-24T03:43:27.435Z,46.74
2023-03-24T03:45:56.894Z,46.79
2023-03-24T03:48:30.300Z,46.88
2023-03-24T03:51:10.753Z,46.95
2023-03-24T03:53:45.136Z,47.03
2023-03-24T03:56:13.929Z,47.09
2023-03-24T03:58:51.060Z,47.08
2023-03-24T04:01:25.269Z,47.17
2023-03-24T04:05:05.214Z,47.25
2023-03-24T04:08:27.596Z,47.41
2023-03-24T04:11:16.875Z,47.51
2023-03-24T04:14:46.175Z,47.56
2023-03-24T04:17:38.949Z,47.56
2023-03-24T04:20:26.895Z,47.62
2023-03-24T04:23:04.575Z,47.54
2023-03-24T04:25:45.263Z,47.47
2023-03-24T04:28:38.337Z,47.42
2023-03-24T04:31:17.982Z,47.40
2023-03-24T04:33:50.805Z,47.36
2023-03-24T04:36:55.705Z,47.36
2023-03-24T04:39:44.779Z,47.40
2023-03-24T04:42:19.721Z,47.32
2023-03-24T04:44:51.539Z,47.24
2023-03-24T04:47:44.166Z,47.17
2023-03-24T04:50:40.186Z,47.28
2023-03-24T04:53:12.763Z,47.20
2023-03-24T04:55:50.519Z,47.23
2023-03-24T04:58:29.709Z,47.23
2023-03-24T05:00:58.811Z,47.19
2023-03-24T05:03:27.891Z,47.18
2023-03-24T05:05:57.633Z,47.16
2023-03-24T05:08:27.332Z,47.17
2023-03-24T05:10:55.978Z,47.28
2023-03-24T05:13:26.575Z,47.36
2023-03-24T05:16:00.203Z,47.51
2023-03-24T05:18:43.692Z,47.77
2023-03-24T05:21:15.002Z,47.94
2023-03-24T05:23:43.860Z,48.09
2023-03-24T05:26:12.718Z,48.34
2023-03-24T05:28:53.657Z,48.34
2023-03-24T05:31:21.884Z,48.25
2023-03-24T05:33:58.596Z,48.33
2023-03-24T05:36:26.937Z,48.14
2023-03-24T05:39:04.121Z,48.09
2023-03-24T05:41:42.963Z,47.93
2023-03-24T05:44:11.786Z,47.48
2023-03-24T05:46:41.686Z,47.24
2023-03-24T05:49:09.751Z,47.17
2023-03-24T05:51:44.733Z,46.98
2023-03-24T05:54:13.387Z,46.67
2023-03-24T05:56:43.966Z,46.55
2023-03-24T05:59:34.363Z,46.30
2023-03-24T06:02:32.251Z,46.20
2023-03-24T06:05:10.030Z,46.18
2023-03-24T06:07:47.554Z,46.32
2023-03-24T06:10:18.468Z,46.40
2023-03-24T06:12:57.006Z,46.25
2023-03-24T06:15:28.290Z,46.07
2023-03-24T06:18:01.210Z,45.98
2023-03-24T06:20:36.175Z,45.66
2023-03-24T06:23:09.527Z,45.79
2023-03-24T06:25:45.288Z,45.99
2023-03-24T06:28:21.543Z,46.26
2023-03-24T06:30:59.166Z,46.22
2023-03-24T06:33:35.018Z,46.51
2023-03-24T06:36:04.473Z,46.75
2023-03-24T06:38:34.454Z,46.88
2023-03-24T06:41:03.880Z,47.03
2023-03-24T06:43:32.720Z,47.12
2023-03-24T06:46:01.427Z,47.26
2023-03-24T06:48:30.287Z,47.36
2023-03-24T06:51:04.808Z,47.36
2023-03-24T06:53:35.074Z,47.28
2023-03-24T06:56:03.905Z,47.49
2023-03-24T06:58:38.171Z,47.49
2023-03-24T07:01:08.429Z,47.69
2023-03-24T07:03:42.161Z,47.77
2023-03-24T07:06:31.342Z,47.80
2023-03-24T07:09:05.584Z,47.76
2023-03-24T07:11:38.047Z,47.60
2023-03-24T07:14:06.286Z,47.35
2023-03-24T07:16:37.290Z,47.18
2023-03-24T07:19:25.838Z,47.04
2023-03-24T07:22:22.434Z,47.02
2023-03-24T07:25:14.491Z,46.85
2023-03-24T07:27:54.438Z,46.75
2023-03-24T07:30:37.198Z,46.58
2023-03-24T07:33:06.726Z,46.62
2023-03-24T07:35:35.431Z,46.50
2023-03-24T07:38:06.326Z,46.48
2023-03-24T07:40:37.600Z,46.73
2023-03-24T07:43:12.839Z,46.88
2023-03-24T07:45:46.225Z,46.81
2023-03-24T07:48:16.888Z,46.78
2023-03-24T07:50:45.912Z,46.77
2023-03-24T07:53:54.497Z,46.73
2023-03-24T07:56:45.875Z,46.75
2023-03-24T07:59:14.728Z,46.69
2023-03-24T08:02:04.444Z,46.61
2023-03-24T08:04:56.727Z,46.52
2023-03-24T08:07:40.277Z,46.48
2023-03-24T08:10:14.294Z,46.42
2023-03-24T08:12:46.228Z,46.60
2023-03-24T08:15:14.768Z,46.54
2023-03-24T08:17:43.622Z,46.60
2023-03-24T08:20:21.397Z,46.64
2023-03-24T08:22:54.299Z,46.57
2023-03-24T08:25:24.250Z,46.50
2023-03-24T08:27:55.886Z,46.46
2023-03-24T08:30:28.539Z,46.48
2023-03-24T08:32:59.423Z,46.49
2023-03-24T08:35:33.352Z,46.51
2023-03-24T08:38:06.028Z,46.52
2023-03-24T08:40:39.954Z,46.62
2023-03-24T08:43:11.149Z,46.60
2023-03-24T08:45:44.703Z,46.53
2023-03-24T08:48:13.103Z,46.24
2023-03-24T08:50:41.889Z,46.31
2023-03-24T08:53:12.830Z,46.34
2023-03-24T08:55:43.368Z,46.06
2023-03-24T08:58:21.900Z,45.79
2023-03-24T09:00:53.451Z,45.63
2023-03-24T09:03:23.132Z,45.31
2023-03-24T09:05:57.344Z,44.97
2023-03-24T09:08:28.757Z,44.69
2023-03-24T09:10:56.845Z,44.39
2023-03-24T09:13:32.046Z,44.16
2023-03-24T09:16:15.972Z,43.66
2023-03-24T09:18:45.667Z,43.63
2023-03-24T09:21:14.017Z,43.32
2023-03-24T09:23:42.576Z,43.19
2023-03-24T09:26:15.020Z,42.97
2023-03-24T09:28:45.554Z,42.88
2023-03-24T09:31:18.776Z,42.59
2023-03-24T09:33:47.256Z,42.49
2023-03-24T09:36:18.542Z,42.12
2023-03-24T09:38:51.868Z,42.39
2023-03-24T09:41:31.946Z,42.45
2023-03-24T09:44:08.515Z,42.34
2023-03-24T09:46:47.759Z,42.13
2023-03-24T09:49:24.161Z,41.87
2023-03-24T09:51:56.604Z,41.70
2023-03-24T09:54:33.316Z,41.20
2023-03-24T09:57:02.106Z,41.28
2023-03-24T09:59:35.578Z,41.33
2023-03-24T10:02:14.249Z,41.51
2023-03-24T10:04:42.836Z,41.70
2023-03-24T10:07:33.839Z,41.32
2023-03-24T10:10:02.194Z,41.29
2023-03-24T10:12:33.917Z,41.38
2023-03-24T10:15:10.715Z,41.43
2023-03-24T10:17:51.122Z,40.94
2023-03-24T10:20:41.717Z,40.78
2023-03-24T10:23:41.068Z,40.56
2023-03-24T10:26:36.863Z,40.12
2023-03-24T10:29:20.365Z,39.36
2023-03-24T10:32:00.202Z,39.57
2023-03-24T10:34:33.349Z,40.01
2023-03-24T10:37:03.071Z,39.78
2023-03-24T10:39:41.951Z,39.77
2023-03-24T10:42:35.429Z,39.43
2023-03-24T10:45:04.320Z,39.10
2023-03-24T10:47:34.159Z,38.91
2023-03-24T10:50:12.060Z,38.73
2023-03-24T10:52:46.776Z,38.30
2023-03-24T10:55:17.252Z,38.15
2023-03-24T10:57:54.464Z,37.88
2023-03-24T11:00:35.946Z,37.70
2023-03-24T11:03:09.720Z,37.64
2023-03-24T11:05:39.085Z,37.49
2023-03-24T11:08:15.020Z,37.47
2023-03-24T11:10:49.715Z,37.40
2023-03-24T11:13:20.314Z,37.28
2023-03-24T11:16:14.352Z,37.22
2023-03-24T11:19:00.521Z,37.20
2023-03-24T11:21:29.760Z,36.96
2023-03-24T11:24:03.727Z,36.78
2023-03-24T11:26:34.951Z,36.59
2023-03-24T11:29:16.224Z,36.65
2023-03-24T11:31:54.604Z,36.82
2023-03-24T11:34:46.512Z,36.86
2023-03-24T11:37:17.003Z,36.89
2023-03-24T11:39:45.424Z,36.99
2023-03-24T11:42:20.677Z,37.02
2023-03-24T11:44:51.561Z,36.99
2023-03-24T11:47:32.661Z,36.79
2023-03-24T11:50:12.668Z,36.72
2023-03-24T11:53:04.578Z,36.83
2023-03-24T11:55:42.301Z,36.95
2023-03-24T11:58:48.535Z,37.04
2023-03-24T12:07:08.837Z,36.82
2023-03-24T12:10:00.278Z,36.54
2023-03-24T12:13:13.460Z,36.23
2023-03-24T12:15:57.286Z,35.97
2023-03-24T12:18:52.506Z,35.77
2023-03-24T12:21:43.885Z,35.49
2023-03-24T12:24:33.694Z,35.42
2023-03-24T12:27:01.802Z,35.24
2023-03-24T12:29:39.762Z,35.40
2023-03-24T12:32:35.719Z,35.26
2023-03-24T12:35:28.641Z,34.65
2023-03-24T12:38:07.999Z,34.57
2023-03-24T12:40:42.770Z,34.57
2023-03-24T12:43:16.414Z,34.53
2023-03-24T12:45:55.140Z,34.49
2023-03-24T12:48:52.269Z,34.58
2023-03-24T12:51:29.886Z,34.59
2023-03-24T12:54:05.990Z,34.64
2023-03-24T12:56:41.728Z,34.73
2023-03-24T12:59:13.609Z,34.62
2023-03-24T13:01:47.257Z,34.74
2023-03-24T13:04:22.123Z,34.86
2023-03-24T13:06:57.042Z,34.93
2023-03-24T13:09:25.828Z,35.09
2023-03-24T13:11:58.769Z,35.09
2023-03-24T13:14:31.284Z,35.04
2023-03-24T13:17:05.534Z,34.81
2023-03-24T13:19:34.418Z,34.70
2023-03-24T13:22:02.781Z,34.72
2023-03-24T13:24:32.312Z,34.81
2023-03-24T13:27:09.690Z,34.55
2023-03-24T13:30:22.764Z,34.72
2023-03-24T13:32:53.998Z,34.49
2023-03-24T13:35:40.490Z,34.62
2023-03-24T13:38:16.541Z,34.52
2023-03-24T13:40:47.916Z,34.42
2023-03-24T13:43:24.533Z,34.37
2023-03-24T13:46:02.253Z,34.42
2023-03-24T13:48:37.791Z,34.29
2023-03-24T13:51:17.584Z,34.33
2023-03-24T13:53:56.788Z,34.41
2023-03-24T13:56:31.778Z,34.49
2023-03-24T13:58:59.922Z,34.37
2023-03-24T14:01:45.731Z,34.47
2023-03-24T14:04:20.025Z,34.77
2023-03-24T14:06:52.091Z,34.79
2023-03-24T14:09:29.569Z,34.84
2023-03-24T14:11:58.891Z,34.87
2023-03-24T14:14:34.212Z,35.12
2023-03-24T14:17:12.742Z,35.25
2023-03-24T14:19:44.960Z,35.35
2023-03-24T14:22:23.020Z,35.43
2023-03-24T14:25:02.962Z,35.48
2023-03-24T14:27:42.935Z,35.45
2023-03-24T14:30:11.343Z,35.52
2023-03-24T14:32:46.625Z,35.55
2023-03-24T14:35:26.614Z,35.63
2023-03-24T14:38:03.125Z,35.81
2023-03-24T14:40:46.543Z,35.94
2023-03-24T14:43:28.503Z,36.00
2023-03-24T14:46:27.653Z,36.20
2023-03-24T14:49:29.641Z,36.20
2023-03-24T14:52:18.443Z,36.23
2023-03-24T14:54:54.132Z,36.32
2023-03-24T14:57:25.277Z,36.45
2023-03-24T15:00:15.904Z,36.62
2023-03-24T15:02:51.423Z,36.59
2023-03-24T15:05:31.658Z,36.71
2023-03-24T15:08:19.057Z,36.92
2023-03-24T15:11:04.282Z,37.04
2023-03-24T15:13:42.256Z,37.18
2023-03-24T15:16:10.523Z,37.26
2023-03-24T15:19:02.629Z,37.35
2023-03-24T15:21:38.742Z,37.42
2023-03-24T15:24:22.505Z,37.40
2023-03-24T15:27:09.223Z,37.40
2023-03-24T15:29:43.020Z,37.45
2023-03-24T15:32:19.489Z,37.48
2023-03-24T15:34:51.628Z,37.57
2023-03-24T15:37:24.752Z,37.58
2023-03-24T15:39:59.146Z,37.72
2023-03-24T15:42:39.297Z,37.79
2023-03-24T15:45:35.175Z,37.87
2023-03-24T15:48:24.059Z,37.93
2023-03-24T15:51:00.545Z,38.11
2023-03-24T15:53:33.689Z,38.21
2023-03-24T15:56:26.152Z,38.19
2023-03-24T15:58:56.406Z,38.30
2023-03-24T16:01:31.724Z,38.35
2023-03-24T16:04:00.938Z,38.51
2023-03-24T16:06:37.565Z,38.64
2023-03-24T16:09:09.525Z,38.72
2023-03-24T16:11:41.597Z,38.81
2023-03-24T16:14:23.157Z,38.89
2023-03-24T16:16:56.034Z,39.05
2023-03-24T16:19:26.988Z,39.07
2023-03-24T16:21:55.521Z,39.17
2023-03-24T16:24:24.140Z,39.22
2023-03-24T16:26:52.300Z,39.28
2023-03-24T16:29:25.498Z,39.41
2023-03-24T16:31:56.173Z,39.54
2023-03-24T16:34:24.415Z,39.65
2023-03-24T16:36:54.355Z,39.73
2023-03-24T16:39:27.283Z,39.88
2023-03-24T16:42:00.826Z,40.00
2023-03-24T16:44:29.626Z,40.09
2023-03-24T16:46:57.881Z,40.08
2023-03-24T16:49:26.236Z,40.15
2023-03-24T16:51:54.882Z,40.25
2023-03-24T16:54:25.480Z,40.37
2023-03-24T16:56:54.597Z,40.36
2023-03-24T16:59:22.777Z,40.44
2023-03-24T17:01:52.699Z,40.47
2023-03-24T17:04:25.920Z,40.58
2023-03-24T17:06:58.414Z,40.69
2023-03-24T17:09:28.702Z,40.81
2023-03-24T17:11:57.612Z,40.91
2023-03-24T17:14:32.999Z,40.97
2023-03-24T17:17:02.956Z,41.02
2023-03-24T17:19:31.483Z,41.05
2023-03-24T17:22:08.848Z,41.08
2023-03-24T17:24:39.845Z,41.16
2023-03-24T17:27:13.259Z,41.24
2023-03-24T17:29:42.368Z,41.22
2023-03-24T17:32:11.284Z,41.24
2023-03-24T17:34:45.665Z,41.32
2023-03-24T17:37:14.709Z,41.23
2023-03-24T17:39:43.178Z,41.23
2023-03-24T17:42:14.732Z,41.27
2023-03-24T17:44:44.081Z,41.30
2023-03-24T17:47:12.333Z,41.32
2023-03-24T17:50:00.606Z,41.27
2023-03-24T17:52:32.031Z,41.29
2023-03-24T17:55:00.750Z,41.29
2023-03-24T17:57:29.084Z,41.22
2023-03-24T17:59:57.225Z,41.25
2023-03-24T18:02:25.618Z,41.25
2023-03-24T18:04:54.611Z,41.33
2023-03-24T18:07:24.696Z,41.63
2023-03-24T18:09:52.775Z,41.79
2023-03-24T18:12:21.311Z,41.98
2023-03-24T18:14:52.024Z,42.19
2023-03-24T18:17:20.440Z,42.32
2023-03-24T18:20:00.967Z,42.54
2023-03-24T18:22:32.187Z,42.79
2023-03-24T18:25:07.455Z,42.97
2023-03-24T18:27:36.598Z,43.07
2023-03-24T18:30:07.080Z,43.18
2023-03-24T18:32:36.063Z,43.25
2023-03-24T18:35:05.713Z,43.28
2023-03-24T18:37:34.973Z,43.36
2023-03-24T18:40:09.403Z,43.33
2023-03-24T18:42:38.691Z,43.31
2023-03-24T18:45:08.269Z,43.39
2023-03-24T18:47:37.425Z,43.46
2023-03-24T18:50:06.609Z,43.53
2023-03-24T18:52:35.649Z,43.61
2023-03-24T18:55:03.872Z,43.61
2023-03-24T18:57:33.452Z,43.67
2023-03-24T19:00:02.771Z,43.78
2023-03-24T19:02:33.586Z,43.79
2023-03-24T19:05:02.533Z,43.95
2023-03-24T19:07:32.124Z,44.01
2023-03-24T19:10:00.302Z,44.12
2023-03-24T19:12:28.715Z,44.14
2023-03-24T19:14:57.053Z,44.32
2023-03-24T19:17:25.333Z,44.45
2023-03-24T19:19:58.464Z,44.57
2023-03-24T19:25:10.074Z,44.83
2023-03-24T19:27:49.139Z,44.94
2023-03-24T19:30:18.447Z,45.04
2023-03-24T19:32:48.094Z,45.08
2023-03-24T19:35:21.625Z,45.15
2023-03-24T19:37:50.536Z,45.36
2023-03-24T19:40:23.570Z,45.53
2023-03-24T19:42:52.218Z,45.64
2023-03-24T19:45:20.676Z,45.80
2023-03-24T19:47:49.474Z,45.89
2023-03-24T19:50:18.635Z,45.98
2023-03-24T19:52:51.234Z,46.14
2023-03-24T19:55:19.623Z,46.24
2023-03-24T19:57:47.774Z,46.34
2023-03-24T20:00:16.342Z,46.41
2023-03-24T20:02:44.688Z,46.55
2023-03-24T20:05:14.889Z,46.75
2023-03-24T20:07:43.980Z,46.87
2023-03-24T20:10:12.225Z,47.04
2023-03-24T20:12:46.078Z,47.19
2023-03-24T20:15:15.593Z,47.20
2023-03-24T20:17:44.350Z,47.36
2023-03-24T20:20:15.785Z,47.43
2023-03-24T20:22:48.948Z,47.55
2023-03-24T20:25:18.026Z,47.65
2023-03-24T20:27:47.663Z,47.80
2023-03-24T20:30:17.883Z,47.92
2023-03-24T20:32:47.887Z,48.03
2023-03-24T20:35:18.461Z,48.08
2023-03-24T20:37:46.964Z,48.13
2023-03-24T20:40:15.355Z,48.22
2023-03-24T20:42:44.251Z,48.35
2023-03-24T20:45:12.505Z,48.47
2023-03-24T20:47:44.396Z,48.58
2023-03-24T20:50:12.776Z,48.66
2023-03-24T20:52:47.495Z,48.71
2023-03-24T20:55:36.001Z,48.89
2023-03-24T20:58:08.671Z,48.94
2023-03-24T21:00:46.684Z,48.98
2023-03-24T21:03:16.430Z,49.06
2023-03-24T21:05:46.210Z,49.18
2023-03-24T21:08:14.532Z,49.33
2023-03-24T21:10:45.500Z,49.28
2023-03-24T21:13:17.121Z,49.31
2023-03-24T21:15:45.503Z,49.44
2023-03-24T21:18:17.964Z,49.45
2023-03-24T21:20:55.147Z,49.48
2023-03-24T21:23:23.696Z,49.57
2023-03-24T21:25:53.413Z,49.55
2023-03-24T21:28:21.631Z,49.60
2023-03-24T21:30:53.270Z,49.64
2023-03-24T21:33:21.997Z,49.74
2023-03-24T21:35:50.212Z,49.77
2023-03-24T21:38:23.398Z,49.81
2023-03-24T21:40:58.792Z,49.91
2023-03-24T21:43:30.347Z,49.89
2023-03-24T21:45:58.550Z,49.94
2023-03-24T21:48:27.960Z,50.01
2023-03-24T21:50:56.250Z,50.01
2023-03-24T21:53:26.288Z,50.05
2023-03-24T21:55:56.264Z,50.11
2023-03-24T21:58:24.386Z,50.16
2023-03-24T22:00:52.431Z,50.25
2023-03-24T22:03:21.948Z,50.25
2023-03-24T22:05:50.274Z,50.21
2023-03-24T22:08:22.637Z,50.19
2023-03-24T22:10:54.441Z,50.18
2023-03-24T22:13:28.346Z,50.21
2023-03-24T22:15:59.762Z,50.39
2023-03-24T22:18:29.472Z,50.33
2023-03-24T22:21:07.008Z,50.35
2023-03-24T22:23:39.220Z,50.33
2023-03-24T22:26:15.612Z,50.28
2023-03-24T22:28:45.272Z,50.26
2023-03-24T22:31:16.980Z,50.29
2023-03-24T22:33:45.329Z,50.36
2023-03-24T22:36:14.334Z,50.40
2023-03-24T22:38:42.533Z,50.36
2023-03-24T22:41:12.233Z,50.43
2023-03-24T22:43:42.132Z,50.43
2023-03-24T22:46:10.890Z,50.50
2023-03-24T22:48:40.500Z,50.48
2023-03-24T22:51:09.465Z,50.42
2023-03-24T22:53:42.993Z,50.39
2023-03-24T22:56:12.107Z,50.36
2023-03-24T22:58:40.579Z,50.27
2023-03-24T23:01:10.570Z,50.24
2023-03-24T23:03:38.978Z,50.34
2023-03-24T23:06:15.963Z,50.31
2023-03-24T23:08:44.861Z,50.29
2023-03-24T23:11:13.128Z,50.23
2023-03-24T23:13:44.962Z,50.10
2023-03-24T23:16:13.018Z,50.15
2023-03-24T23:18:41.703Z,50.11
2023-03-24T23:21:12.246Z,50.13
2023-03-24T23:23:41.043Z,50.14
2023-03-24T23:26:26.046Z,50.24
2023-03-24T23:28:55.250Z,50.44
2023-03-24T23:31:27.123Z,50.48
2023-03-24T23:33:57.734Z,50.45
2023-03-24T23:36:29.032Z,50.45
2023-03-24T23:38:59.897Z,50.34
2023-03-24T23:41:28.164Z,50.33
2023-03-24T23:43:56.384Z,50.38
2023-03-24T23:46:24.758Z,50.39
2023-03-24T23:48:53.530Z,50.38
2023-03-24T23:51:24.821Z,50.34
2023-03-24T23:53:53.044Z,50.34
2023-03-24T23:56:23.040Z,50.15
2023-03-24T23:58:52.371Z,49.97
